Sunday, June 26, 2016, 12:34 AM EDT

KGED, Georgetown Sussex Co Airport

Location: Georgetown, DE, United States Lat: 38.683
Local Time: 12:34 AM EDT ( 4:34 GMT) Lon: -75.367
Time Zone: US/Eastern Elev: 52 ft

Show me the last for .
Show Decoded

2016-06-25 23:54 METAR KGED 260354Z AUTO 00000KT 10SM CLR 17/16 A3022 RMK AO2 SLP232 T01720161 =
2016-06-25 22:54 METAR KGED 260254Z AUTO 00000KT 10SM CLR 18/17 A3022 RMK AO2 SLP231 T01780167
                 51009 =
2016-06-25 21:54 METAR KGED 260154Z AUTO 00000KT 10SM CLR 18/17 A3021 RMK AO2 SLP230 T01830167 =
2016-06-25 20:54 METAR KGED 260054Z AUTO 12003KT 10SM CLR 19/17 A3020 RMK AO2 SLP226 T01940167 =
2016-06-25 19:54 METAR KGED 252354Z AUTO 14005KT 10SM CLR 22/17 A3019 RMK AO2 SLP222 T02170167
                 10267 20217 53003 =
2016-06-25 18:54 METAR KGED 252254Z AUTO 07007KT 10SM CLR 24/13 A3018 RMK AO2 SLP219 T02440133 =
2016-06-25 17:54 METAR KGED 252154Z AUTO 10006KT 10SM CLR 25/13 A3018 RMK AO2 SLP219 T02500133 =
2016-06-25 16:54 METAR KGED 252054Z AUTO 08009KT 10SM CLR 26/12 A3018 RMK AO2 SLP219 T02560117
                 50000 =
2016-06-25 15:54 METAR KGED 251954Z AUTO 09011KT 10SM CLR 26/14 A3019 RMK AO2 SLP221 T02560139 =
2016-06-25 14:54 METAR KGED 251854Z AUTO 06010KT 10SM CLR 27/14 A3019 RMK AO2 SLP222 T02670139 =
2016-06-25 13:54 METAR KGED 251754Z AUTO 05010G17KT 10SM CLR 26/17 A3018 RMK AO2 SLP219 T02560172
                 10256 20206 58002 =
2016-06-25 12:54 METAR KGED 251654Z AUTO 07012KT 10SM CLR 25/17 A3018 RMK AO2 SLP219 T02500172 =
2016-06-25 12:13 METAR KGED 251613Z AUTO 06009KT 10SM SCT022 24/18 A3018 RMK AO2 T02440183 =
2016-06-25 11:54 METAR KGED 251554Z AUTO 04010KT 10SM BKN022 24/18 A3019 RMK AO2 SLP222 T02390183
                 =
2016-06-25 10:54 METAR KGED 251454Z AUTO 04010KT 10SM SCT022 23/18 A3019 RMK AO2 SLP221 T02330178
                 53008 =
2016-06-25 10:31 METAR KGED 251431Z AUTO 06010KT 10SM SCT022 23/17 A3018 RMK AO2 T02330172 =
2016-06-25 09:54 METAR KGED 251354Z AUTO 05011KT 10SM BKN017 BKN024 22/18 A3017 RMK AO2 SLP216
                 T02220178 =
2016-06-25 09:41 METAR KGED 251341Z AUTO 04008KT 10SM BKN017 22/18 A3017 RMK AO2 T02220178 =
2016-06-25 09:06 METAR KGED 251306Z AUTO 06011KT 10SM SCT013 21/17 A3017 RMK AO2 T02110172 =
2016-06-25 08:54 METAR KGED 251254Z AUTO 05011KT 10SM BKN012 22/18 A3016 RMK AO2 SLP213 T02170178
                 =
2016-06-25 08:15 METAR KGED 251215Z AUTO 06012G15KT 10SM SCT011 21/18 A3015 RMK AO2 T02060178 =
2016-06-25 07:54 METAR KGED 251154Z AUTO 06009KT 10SM BKN009 21/18 A3015 RMK AO2 CIG 008V014
                 SLP207 70065 T02060183 10206 20194 53018 =
2016-06-25 06:54 METAR KGED 251054Z AUTO 04006KT 8SM OVC009 19/18 A3012 RMK AO2 SLP200 T01940183
                 =
2016-06-25 05:54 METAR KGED 250954Z AUTO 04007KT 9SM OVC008 20/18 A3011 RMK AO2 SLP194 T02000183
                 =
2016-06-25 04:54 METAR KGED 250854Z AUTO 02005KT 10SM OVC009 20/18 A3009 RMK AO2 SLP189 T02000183
                 53008 =
2016-06-25 03:54 METAR KGED 250754Z AUTO 06005KT 9SM BKN007 OVC010 20/19 A3008 RMK AO2 SLP183
                 T02000189 =
2016-06-25 02:54 METAR KGED 250654Z AUTO 04009KT 8SM OVC007 20/19 A3007 RMK AO2 SLP181 T02000189
                 =
2016-06-25 01:54 METAR KGED 250554Z AUTO 05010KT 9SM OVC007 20/19 A3007 RMK AO2 SLP181 T02000189
                 10217 20200 50000 =
2016-06-25 00:54 METAR KGED 250454Z AUTO 06007KT 10SM OVC006 20/19 A3008 RMK AO2 SLP184 T02000189
                 402780200 =

Support USWX by starting your Amazon purchase here.